Terminal Aerodrome Forecast
Issued by NWS

Home | Current Version | Previous Version | Text Only | Print | Product List | Glossary On
Versions: 1 2 3 4 5 6 7 8 9 10 11 12 13 14 15 16
175
FTUS42 KJAX 311120
TAFCRG
TAF
KCRG 311120Z 3112/0112 27006KT P6SM FEW080
     FM311500 28007KT P6SM SCT050 SCT080
     FM311900 12010KT P6SM VCTS SCT050CB SCT250
     FM010200 18005KT P6SM SCT050 SCT100=

USA.gov is the U.S. government's official web portal to all federal, state and local government web resources and services.